sensor_id;sensor_type;location;lat;lon;timestamp;temperature;humidity
1538;DHT22;12022;52.266;10.522;2022-08-25T00:01:43;21.50;99.90
1538;DHT22;12022;52.266;10.522;2022-08-25T00:04:14;21.50;99.90
1538;DHT22;12022;52.266;10.522;2022-08-25T00:06:42;21.50;99.90
1538;DHT22;12022;52.266;10.522;2022-08-25T00:09:11;21.40;99.90
1538;DHT22;12022;52.266;10.522;2022-08-25T00:11:40;21.40;99.90
1538;DHT22;12022;52.266;10.522;2022-08-25T00:14:19;21.40;99.90
1538;DHT22;12022;52.266;10.522;2022-08-25T00:16:47;21.40;99.90
1538;DHT22;12022;52.266;10.522;2022-08-25T00:19:18;21.40;99.90
1538;DHT22;12022;52.266;10.522;2022-08-25T00:21:46;21.40;99.90
1538;DHT22;12022;52.266;10.522;2022-08-25T00:24:15;21.30;99.90
1538;DHT22;12022;52.266;10.522;2022-08-25T00:26:48;21.30;99.90
1538;DHT22;12022;52.266;10.522;2022-08-25T00:29:16;21.20;99.90
1538;DHT22;12022;52.266;10.522;2022-08-25T00:31:43;21.20;99.90
1538;DHT22;12022;52.266;10.522;2022-08-25T00:34:15;21.20;99.90
1538;DHT22;12022;52.266;10.522;2022-08-25T00:36:43;21.20;99.90
1538;DHT22;12022;52.266;10.522;2022-08-25T00:39:10;21.20;99.90
1538;DHT22;12022;52.266;10.522;2022-08-25T00:41:41;21.10;99.90
1538;DHT22;12022;52.266;10.522;2022-08-25T00:44:11;21.10;99.90
1538;DHT22;12022;52.266;10.522;2022-08-25T00:46:46;21.10;99.90
1538;DHT22;12022;52.266;10.522;2022-08-25T00:49:17;21.10;99.90
1538;DHT22;12022;52.266;10.522;2022-08-25T00:54:33;21.00;99.90
1538;DHT22;12022;52.266;10.522;2022-08-25T00:57:03;21.00;99.90
1538;DHT22;12022;52.266;10.522;2022-08-25T00:59:31;20.90;99.90
1538;DHT22;12022;52.266;10.522;2022-08-25T01:01:58;20.80;99.90
1538;DHT22;12022;52.266;10.522;2022-08-25T01:04:26;20.80;99.90
1538;DHT22;12022;52.266;10.522;2022-08-25T01:06:53;20.70;99.90
1538;DHT22;12022;52.266;10.522;2022-08-25T01:09:21;20.70;99.90
1538;DHT22;12022;52.266;10.522;2022-08-25T01:11:48;20.70;99.90
1538;DHT22;12022;52.266;10.522;2022-08-25T01:14:18;20.70;99.90
1538;DHT22;12022;52.266;10.522;2022-08-25T01:16:46;20.70;99.90
1538;DHT22;12022;52.266;10.522;2022-08-25T01:19:20;20.70;99.90
1538;DHT22;12022;52.266;10.522;2022-08-25T01:21:50;20.60;99.90
1538;DHT22;12022;52.266;10.522;2022-08-25T01:24:31;20.60;99.90
1538;DHT22;12022;52.266;10.522;2022-08-25T01:27:00;20.60;99.90
1538;DHT22;12022;52.266;10.522;2022-08-25T01:29:27;20.60;99.90
1538;DHT22;12022;52.266;10.522;2022-08-25T01:31:58;20.50;99.90
1538;DHT22;12022;52.266;10.522;2022-08-25T01:34:28;20.50;99.90
1538;DHT22;12022;52.266;10.522;2022-08-25T01:36:57;20.50;99.90
1538;DHT22;12022;52.266;10.522;2022-08-25T01:39:27;20.50;99.90
1538;DHT22;12022;52.266;10.522;2022-08-25T01:44:37;20.50;99.90
1538;DHT22;12022;52.266;10.522;2022-08-25T01:47:05;20.50;99.90
1538;DHT22;12022;52.266;10.522;2022-08-25T01:49:33;20.40;99.90
1538;DHT22;12022;52.266;10.522;2022-08-25T01:52:20;20.40;99.90
1538;DHT22;12022;52.266;10.522;2022-08-25T01:54:49;20.40;99.90
1538;DHT22;12022;52.266;10.522;2022-08-25T01:57:16;20.40;99.90
1538;DHT22;12022;52.266;10.522;2022-08-25T01:59:44;20.40;99.90
1538;DHT22;12022;52.266;10.522;2022-08-25T02:02:11;20.40;99.90
1538;DHT22;12022;52.266;10.522;2022-08-25T02:04:38;20.40;99.90
1538;DHT22;12022;52.266;10.522;2022-08-25T02:07:10;20.30;99.90
1538;DHT22;12022;52.266;10.522;2022-08-25T02:09:37;20.30;99.90
1538;DHT22;12022;52.266;10.522;2022-08-25T02:12:05;20.30;99.90
1538;DHT22;12022;52.266;10.522;2022-08-25T02:14:32;20.30;99.90
1538;DHT22;12022;52.266;10.522;2022-08-25T02:17:02;20.30;99.90
1538;DHT22;12022;52.266;10.522;2022-08-25T02:19:30;20.30;99.90
1538;DHT22;12022;52.266;10.522;2022-08-25T02:21:58;20.30;99.90
1538;DHT22;12022;52.266;10.522;2022-08-25T02:24:25;20.30;99.90
1538;DHT22;12022;52.266;10.522;2022-08-25T02:26:52;20.30;99.90
1538;DHT22;12022;52.266;10.522;2022-08-25T02:29:20;20.20;99.90
1538;DHT22;12022;52.266;10.522;2022-08-25T02:31:47;20.20;99.90
1538;DHT22;12022;52.266;10.522;2022-08-25T02:34:14;20.20;99.90
1538;DHT22;12022;52.266;10.522;2022-08-25T02:36:41;20.20;99.90
1538;DHT22;12022;52.266;10.522;2022-08-25T02:39:10;20.20;99.90
1538;DHT22;12022;52.266;10.522;2022-08-25T02:41:38;20.20;99.90
1538;DHT22;12022;52.266;10.522;2022-08-25T02:44:07;20.20;99.90
1538;DHT22;12022;52.266;10.522;2022-08-25T02:46:35;20.20;99.90
1538;DHT22;12022;52.266;10.522;2022-08-25T02:49:04;20.20;99.90
1538;DHT22;12022;52.266;10.522;2022-08-25T02:51:31;20.20;99.90
1538;DHT22;12022;52.266;10.522;2022-08-25T02:54:00;20.20;99.90
1538;DHT22;12022;52.266;10.522;2022-08-25T02:56:29;20.20;99.90
1538;DHT22;12022;52.266;10.522;2022-08-25T02:58:57;20.10;99.90
1538;DHT22;12022;52.266;10.522;2022-08-25T03:01:24;20.10;99.90
1538;DHT22;12022;52.266;10.522;2022-08-25T03:03:55;20.10;99.90
1538;DHT22;12022;52.266;10.522;2022-08-25T03:06:22;20.10;99.90
1538;DHT22;12022;52.266;10.522;2022-08-25T03:08:51;20.10;99.90
1538;DHT22;12022;52.266;10.522;2022-08-25T03:11:18;20.10;99.90
1538;DHT22;12022;52.266;10.522;2022-08-25T03:13:45;20.00;99.90
1538;DHT22;12022;52.266;10.522;2022-08-25T03:16:12;20.00;99.90
1538;DHT22;12022;52.266;10.522;2022-08-25T03:18:41;20.00;99.90
1538;DHT22;12022;52.266;10.522;2022-08-25T03:21:09;20.00;99.90
1538;DHT22;12022;52.266;10.522;2022-08-25T03:23:38;19.90;99.90
1538;DHT22;12022;52.266;10.522;2022-08-25T03:26:06;19.90;99.90
1538;DHT22;12022;52.266;10.522;2022-08-25T03:28:52;19.90;99.90
1538;DHT22;12022;52.266;10.522;2022-08-25T03:31:22;19.90;99.90
1538;DHT22;12022;52.266;10.522;2022-08-25T03:33:49;19.90;99.90
1538;DHT22;12022;52.266;10.522;2022-08-25T03:36:16;19.90;99.90
1538;DHT22;12022;52.266;10.522;2022-08-25T03:38:43;19.90;99.90
1538;DHT22;12022;52.266;10.522;2022-08-25T03:41:23;19.90;99.90
1538;DHT22;12022;52.266;10.522;2022-08-25T03:43:54;19.80;99.90
1538;DHT22;12022;52.266;10.522;2022-08-25T03:46:28;19.80;99.90
1538;DHT22;12022;52.266;10.522;2022-08-25T03:48:56;19.80;99.90
1538;DHT22;12022;52.266;10.522;2022-08-25T03:51:27;19.80;99.90
1538;DHT22;12022;52.266;10.522;2022-08-25T03:53:55;19.80;99.90
1538;DHT22;12022;52.266;10.522;2022-08-25T03:56:23;19.80;99.90
1538;DHT22;12022;52.266;10.522;2022-08-25T03:58:51;19.70;99.90
1538;DHT22;12022;52.266;10.522;2022-08-25T04:01:19;19.70;99.90
1538;DHT22;12022;52.266;10.522;2022-08-25T04:03:46;19.70;99.90
1538;DHT22;12022;52.266;10.522;2022-08-25T04:06:15;19.60;99.90
1538;DHT22;12022;52.266;10.522;2022-08-25T04:08:43;19.60;99.90
1538;DHT22;12022;52.266;10.522;2022-08-25T04:11:16;19.60;99.90
1538;DHT22;12022;52.266;10.522;2022-08-25T04:13:46;19.60;99.90
1538;DHT22;12022;52.266;10.522;2022-08-25T04:16:20;19.60;99.90
1538;DHT22;12022;52.266;10.522;2022-08-25T04:18:48;19.60;99.90
1538;DHT22;12022;52.266;10.522;2022-08-25T04:21:16;19.60;99.90
1538;DHT22;12022;52.266;10.522;2022-08-25T04:23:45;19.70;99.90
1538;DHT22;12022;52.266;10.522;2022-08-25T04:26:19;19.60;99.90
1538;DHT22;12022;52.266;10.522;2022-08-25T04:28:47;19.60;99.90
1538;DHT22;12022;52.266;10.522;2022-08-25T04:31:16;19.70;99.90
1538;DHT22;12022;52.266;10.522;2022-08-25T04:33:44;19.60;99.90
1538;DHT22;12022;52.266;10.522;2022-08-25T04:36:15;19.60;99.90
1538;DHT22;12022;52.266;10.522;2022-08-25T04:38:44;19.60;99.90
1538;DHT22;12022;52.266;10.522;2022-08-25T04:41:13;19.70;99.90
1538;DHT22;12022;52.266;10.522;2022-08-25T04:43:42;19.70;99.90
1538;DHT22;12022;52.266;10.522;2022-08-25T04:46:13;19.80;99.90
1538;DHT22;12022;52.266;10.522;2022-08-25T04:48:47;20.00;99.90
1538;DHT22;12022;52.266;10.522;2022-08-25T04:51:17;20.20;99.90
1538;DHT22;12022;52.266;10.522;2022-08-25T04:53:45;20.50;99.90
1538;DHT22;12022;52.266;10.522;2022-08-25T04:56:13;20.80;99.90
1538;DHT22;12022;52.266;10.522;2022-08-25T04:58:41;21.10;99.90
1538;DHT22;12022;52.266;10.522;2022-08-25T05:01:11;21.40;99.90
1538;DHT22;12022;52.266;10.522;2022-08-25T05:03:42;21.50;99.90
1538;DHT22;12022;52.266;10.522;2022-08-25T05:06:09;21.50;99.90
1538;DHT22;12022;52.266;10.522;2022-08-25T05:08:41;21.60;99.90
1538;DHT22;12022;52.266;10.522;2022-08-25T05:11:13;21.80;99.90
1538;DHT22;12022;52.266;10.522;2022-08-25T05:13:41;22.10;99.90
1538;DHT22;12022;52.266;10.522;2022-08-25T05:16:08;22.50;99.90
1538;DHT22;12022;52.266;10.522;2022-08-25T05:18:37;23.10;99.90
1538;DHT22;12022;52.266;10.522;2022-08-25T05:21:14;23.70;99.90
1538;DHT22;12022;52.266;10.522;2022-08-25T05:23:41;24.30;99.90
1538;DHT22;12022;52.266;10.522;2022-08-25T05:26:14;25.00;99.90
1538;DHT22;12022;52.266;10.522;2022-08-25T05:28:48;25.50;99.90
1538;DHT22;12022;52.266;10.522;2022-08-25T05:31:17;26.00;99.90
1538;DHT22;12022;52.266;10.522;2022-08-25T05:33:45;26.50;99.90
1538;DHT22;12022;52.266;10.522;2022-08-25T05:36:14;26.90;99.90
1538;DHT22;12022;52.266;10.522;2022-08-25T05:38:41;27.40;99.90
1538;DHT22;12022;52.266;10.522;2022-08-25T05:41:12;27.80;99.90
1538;DHT22;12022;52.266;10.522;2022-08-25T05:43:43;28.30;99.90
1538;DHT22;12022;52.266;10.522;2022-08-25T05:46:11;28.50;99.90
1538;DHT22;12022;52.266;10.522;2022-08-25T05:48:39;28.90;99.90
1538;DHT22;12022;52.266;10.522;2022-08-25T05:51:08;29.30;99.90
1538;DHT22;12022;52.266;10.522;2022-08-25T05:53:38;29.80;99.90
1538;DHT22;12022;52.266;10.522;2022-08-25T05:56:06;30.30;99.90
1538;DHT22;12022;52.266;10.522;2022-08-25T05:58:34;30.80;99.90
1538;DHT22;12022;52.266;10.522;2022-08-25T06:01:03;31.30;99.00
1538;DHT22;12022;52.266;10.522;2022-08-25T06:03:49;31.80;97.90
1538;DHT22;12022;52.266;10.522;2022-08-25T06:06:20;32.10;96.30
1538;DHT22;12022;52.266;10.522;2022-08-25T06:08:48;32.50;95.90
1538;DHT22;12022;52.266;10.522;2022-08-25T06:11:15;32.90;95.40
1538;DHT22;12022;52.266;10.522;2022-08-25T06:13:42;33.30;94.10
1538;DHT22;12022;52.266;10.522;2022-08-25T06:16:09;33.70;93.30
1538;DHT22;12022;52.266;10.522;2022-08-25T06:18:36;34.10;92.90
1538;DHT22;12022;52.266;10.522;2022-08-25T06:21:11;34.50;92.30
1538;DHT22;12022;52.266;10.522;2022-08-25T06:23:39;34.90;90.80
1538;DHT22;12022;52.266;10.522;2022-08-25T06:26:09;35.10;89.70
1538;DHT22;12022;52.266;10.522;2022-08-25T06:28:44;35.30;87.90
1538;DHT22;12022;52.266;10.522;2022-08-25T06:31:11;35.40;86.40
1538;DHT22;12022;52.266;10.522;2022-08-25T06:33:38;35.80;86.30
1538;DHT22;12022;52.266;10.522;2022-08-25T06:36:06;36.10;85.60
1538;DHT22;12022;52.266;10.522;2022-08-25T06:38:33;36.50;82.80
1538;DHT22;12022;52.266;10.522;2022-08-25T06:41:04;36.70;81.70
1538;DHT22;12022;52.266;10.522;2022-08-25T06:43:33;36.90;79.20
1538;DHT22;12022;52.266;10.522;2022-08-25T06:46:11;37.10;79.70
1538;DHT22;12022;52.266;10.522;2022-08-25T06:48:38;37.30;77.80
1538;DHT22;12022;52.266;10.522;2022-08-25T06:51:08;37.50;77.30
1538;DHT22;12022;52.266;10.522;2022-08-25T06:53:41;38.00;76.00
1538;DHT22;12022;52.266;10.522;2022-08-25T06:56:11;38.50;75.10
1538;DHT22;12022;52.266;10.522;2022-08-25T06:58:39;38.60;72.80
1538;DHT22;12022;52.266;10.522;2022-08-25T07:01:22;39.40;69.70
1538;DHT22;12022;52.266;10.522;2022-08-25T07:03:56;39.60;68.80
1538;DHT22;12022;52.266;10.522;2022-08-25T07:06:30;39.90;67.30
1538;DHT22;12022;52.266;10.522;2022-08-25T07:08:58;40.30;66.50
1538;DHT22;12022;52.266;10.522;2022-08-25T07:11:25;40.70;65.00
1538;DHT22;12022;52.266;10.522;2022-08-25T07:14:01;41.20;63.20
1538;DHT22;12022;52.266;10.522;2022-08-25T07:16:29;41.30;62.10
1538;DHT22;12022;52.266;10.522;2022-08-25T07:18:58;41.60;60.90
1538;DHT22;12022;52.266;10.522;2022-08-25T07:21:27;41.90;59.90
1538;DHT22;12022;52.266;10.522;2022-08-25T07:24:00;42.30;58.70
1538;DHT22;12022;52.266;10.522;2022-08-25T07:26:32;42.70;57.40
1538;DHT22;12022;52.266;10.522;2022-08-25T07:29:20;42.60;55.60
1538;DHT22;12022;52.266;10.522;2022-08-25T07:32:00;42.90;55.40
1538;DHT22;12022;52.266;10.522;2022-08-25T07:34:27;42.70;54.10
1538;DHT22;12022;52.266;10.522;2022-08-25T07:37:19;42.00;54.20
1538;DHT22;12022;52.266;10.522;2022-08-25T07:40:08;40.60;55.30
1538;DHT22;12022;52.266;10.522;2022-08-25T07:42:36;38.90;57.30
1538;DHT22;12022;52.266;10.522;2022-08-25T07:45:05;37.30;59.50
1538;DHT22;12022;52.266;10.522;2022-08-25T07:47:37;36.20;62.00
1538;DHT22;12022;52.266;10.522;2022-08-25T07:50:09;35.20;64.30
1538;DHT22;12022;52.266;10.522;2022-08-25T07:52:39;34.50;67.50
1538;DHT22;12022;52.266;10.522;2022-08-25T07:55:07;33.90;69.70
1538;DHT22;12022;52.266;10.522;2022-08-25T07:57:39;33.40;71.50
1538;DHT22;12022;52.266;10.522;2022-08-25T08:00:08;32.90;73.50
1538;DHT22;12022;52.266;10.522;2022-08-25T08:02:40;32.50;75.60
1538;DHT22;12022;52.266;10.522;2022-08-25T08:05:12;32.10;78.10
1538;DHT22;12022;52.266;10.522;2022-08-25T08:07:40;31.70;79.50
1538;DHT22;12022;52.266;10.522;2022-08-25T08:10:11;31.40;81.30
1538;DHT22;12022;52.266;10.522;2022-08-25T08:12:59;31.30;82.80
1538;DHT22;12022;52.266;10.522;2022-08-25T08:15:26;31.10;84.10
1538;DHT22;12022;52.266;10.522;2022-08-25T08:17:56;31.00;85.40
1538;DHT22;12022;52.266;10.522;2022-08-25T08:20:25;30.90;87.00
1538;DHT22;12022;52.266;10.522;2022-08-25T08:22:52;30.80;87.60
1538;DHT22;12022;52.266;10.522;2022-08-25T08:25:20;30.70;88.50
1538;DHT22;12022;52.266;10.522;2022-08-25T08:27:53;30.60;89.50
1538;DHT22;12022;52.266;10.522;2022-08-25T08:30:22;30.40;90.10
1538;DHT22;12022;52.266;10.522;2022-08-25T08:32:53;30.30;90.60
1538;DHT22;12022;52.266;10.522;2022-08-25T08:35:39;30.20;91.10
1538;DHT22;12022;52.266;10.522;2022-08-25T08:38:07;30.20;91.60
1538;DHT22;12022;52.266;10.522;2022-08-25T08:43:55;30.10;92.20
1538;DHT22;12022;52.266;10.522;2022-08-25T08:46:33;30.10;92.40
1538;DHT22;12022;52.266;10.522;2022-08-25T08:49:17;30.10;92.50
1538;DHT22;12022;52.266;10.522;2022-08-25T08:51:58;30.30;92.60
1538;DHT22;12022;52.266;10.522;2022-08-25T08:54:31;30.50;92.70
1538;DHT22;12022;52.266;10.522;2022-08-25T08:57:13;30.70;92.70
1538;DHT22;12022;52.266;10.522;2022-08-25T09:00:04;30.70;92.10
1538;DHT22;12022;52.266;10.522;2022-08-25T09:02:45;30.70;92.10
1538;DHT22;12022;52.266;10.522;2022-08-25T09:05:19;30.80;92.10
1538;DHT22;12022;52.266;10.522;2022-08-25T09:08:10;30.80;91.70
1538;DHT22;12022;52.266;10.522;2022-08-25T09:11:09;30.80;91.70
1538;DHT22;12022;52.266;10.522;2022-08-25T09:25:17;30.40;92.10
1538;DHT22;12022;52.266;10.522;2022-08-25T09:28:12;30.30;92.40
1538;DHT22;12022;52.266;10.522;2022-08-25T09:31:30;30.20;92.30
1538;DHT22;12022;52.266;10.522;2022-08-25T09:33:37;30.20;92.60
1538;DHT22;12022;52.266;10.522;2022-08-25T09:36:04;30.20;92.50
1538;DHT22;12022;52.266;10.522;2022-08-25T09:38:35;30.20;92.70
1538;DHT22;12022;52.266;10.522;2022-08-25T09:41:02;30.20;92.50
1538;DHT22;12022;52.266;10.522;2022-08-25T09:43:31;30.20;92.40
1538;DHT22;12022;52.266;10.522;2022-08-25T09:48:47;30.00;92.30
1538;DHT22;12022;52.266;10.522;2022-08-25T09:54:02;29.70;93.20
1538;DHT22;12022;52.266;10.522;2022-08-25T09:56:48;29.70;92.80
1538;DHT22;12022;52.266;10.522;2022-08-25T10:02:27;30.00;92.60
1538;DHT22;12022;52.266;10.522;2022-08-25T10:04:55;30.00;92.60
1538;DHT22;12022;52.266;10.522;2022-08-25T10:07:29;30.10;92.20
1538;DHT22;12022;52.266;10.522;2022-08-25T10:10:02;30.10;92.10
1538;DHT22;12022;52.266;10.522;2022-08-25T10:12:41;30.20;92.10
1538;DHT22;12022;52.266;10.522;2022-08-25T10:18:21;30.10;93.00
1538;DHT22;12022;52.266;10.522;2022-08-25T10:21:15;29.90;93.20
1538;DHT22;12022;52.266;10.522;2022-08-25T10:23:50;29.70;93.50
1538;DHT22;12022;52.266;10.522;2022-08-25T10:35:28;29.80;93.30
1538;DHT22;12022;52.266;10.522;2022-08-25T10:38:27;29.90;93.40
1538;DHT22;12022;52.266;10.522;2022-08-25T10:43:37;30.10;93.00
1538;DHT22;12022;52.266;10.522;2022-08-25T10:46:16;30.10;92.40
1538;DHT22;12022;52.266;10.522;2022-08-25T10:48:50;30.20;92.40
1538;DHT22;12022;52.266;10.522;2022-08-25T10:54:05;30.60;91.10
1538;DHT22;12022;52.266;10.522;2022-08-25T10:56:45;30.60;91.20
1538;DHT22;12022;52.266;10.522;2022-08-25T11:04:36;30.90;91.00
1538;DHT22;12022;52.266;10.522;2022-08-25T11:07:10;30.80;91.00
1538;DHT22;12022;52.266;10.522;2022-08-25T11:09:44;30.70;91.30
1538;DHT22;12022;52.266;10.522;2022-08-25T11:14:52;30.50;91.00
1538;DHT22;12022;52.266;10.522;2022-08-25T11:17:41;30.50;91.20
1538;DHT22;12022;52.266;10.522;2022-08-25T11:20:14;30.40;91.20
1538;DHT22;12022;52.266;10.522;2022-08-25T11:25:38;29.90;91.70
1538;DHT22;12022;52.266;10.522;2022-08-25T11:28:17;29.70;92.00
1538;DHT22;12022;52.266;10.522;2022-08-25T11:30:50;29.50;92.30
1538;DHT22;12022;52.266;10.522;2022-08-25T11:33:18;29.60;92.50
1538;DHT22;12022;52.266;10.522;2022-08-25T11:35:54;29.60;92.30
1538;DHT22;12022;52.266;10.522;2022-08-25T11:41:20;29.60;92.30
1538;DHT22;12022;52.266;10.522;2022-08-25T11:46:51;29.50;92.20
1538;DHT22;12022;52.266;10.522;2022-08-25T11:51:58;29.60;92.00
1538;DHT22;12022;52.266;10.522;2022-08-25T11:54:41;29.70;92.00
1538;DHT22;12022;52.266;10.522;2022-08-25T11:57:18;30.00;91.70
1538;DHT22;12022;52.266;10.522;2022-08-25T12:02:42;30.40;91.40
1538;DHT22;12022;52.266;10.522;2022-08-25T12:07:58;30.60;91.00
1538;DHT22;12022;52.266;10.522;2022-08-25T12:10:54;30.70;90.80
1538;DHT22;12022;52.266;10.522;2022-08-25T12:13:48;30.80;90.80
1538;DHT22;12022;52.266;10.522;2022-08-25T12:27:59;30.60;90.70
1538;DHT22;12022;52.266;10.522;2022-08-25T12:30:46;30.40;90.60
1538;DHT22;12022;52.266;10.522;2022-08-25T12:33:40;30.30;90.90
1538;DHT22;12022;52.266;10.522;2022-08-25T12:36:10;30.20;90.60
1538;DHT22;12022;52.266;10.522;2022-08-25T12:38:52;30.10;90.70
1538;DHT22;12022;52.266;10.522;2022-08-25T12:41:23;30.10;90.80
1538;DHT22;12022;52.266;10.522;2022-08-25T12:43:53;30.10;91.00
1538;DHT22;12022;52.266;10.522;2022-08-25T12:46:37;30.10;90.90
1538;DHT22;12022;52.266;10.522;2022-08-25T12:51:54;30.20;90.60
1538;DHT22;12022;52.266;10.522;2022-08-25T12:54:52;30.10;90.70
1538;DHT22;12022;52.266;10.522;2022-08-25T12:57:45;30.10;90.80
1538;DHT22;12022;52.266;10.522;2022-08-25T13:00:24;30.10;91.00
1538;DHT22;12022;52.266;10.522;2022-08-25T13:11:33;30.20;90.50
1538;DHT22;12022;52.266;10.522;2022-08-25T13:14:28;30.20;90.30
1538;DHT22;12022;52.266;10.522;2022-08-25T13:17:03;30.20;90.10
1538;DHT22;12022;52.266;10.522;2022-08-25T13:19:32;30.10;90.10
1538;DHT22;12022;52.266;10.522;2022-08-25T13:22:11;30.00;90.20
1538;DHT22;12022;52.266;10.522;2022-08-25T13:24:44;29.90;90.30
1538;DHT22;12022;52.266;10.522;2022-08-25T13:27:26;29.80;90.50
1538;DHT22;12022;52.266;10.522;2022-08-25T13:29:57;29.90;90.40
1538;DHT22;12022;52.266;10.522;2022-08-25T13:32:35;30.00;90.10
1538;DHT22;12022;52.266;10.522;2022-08-25T13:35:23;29.90;90.50
1538;DHT22;12022;52.266;10.522;2022-08-25T13:38:15;30.10;90.20
1538;DHT22;12022;52.266;10.522;2022-08-25T13:40:42;30.10;90.00
1538;DHT22;12022;52.266;10.522;2022-08-25T13:43:12;30.20;89.00
1538;DHT22;12022;52.266;10.522;2022-08-25T13:45:46;30.30;88.80
1538;DHT22;12022;52.266;10.522;2022-08-25T13:48:35;30.20;88.30
1538;DHT22;12022;52.266;10.522;2022-08-25T13:51:18;30.20;89.00
1538;DHT22;12022;52.266;10.522;2022-08-25T13:53:53;30.20;89.50
1538;DHT22;12022;52.266;10.522;2022-08-25T13:59:23;30.10;90.00
1538;DHT22;12022;52.266;10.522;2022-08-25T14:01:53;30.10;89.50
1538;DHT22;12022;52.266;10.522;2022-08-25T14:04:43;30.20;89.50
1538;DHT22;12022;52.266;10.522;2022-08-25T14:09:51;30.10;88.90
1538;DHT22;12022;52.266;10.522;2022-08-25T14:15:43;30.20;88.90
1538;DHT22;12022;52.266;10.522;2022-08-25T14:18:24;30.30;88.90
1538;DHT22;12022;52.266;10.522;2022-08-25T14:20:54;30.40;88.60
1538;DHT22;12022;52.266;10.522;2022-08-25T14:23:27;30.50;88.40
1538;DHT22;12022;52.266;10.522;2022-08-25T14:25:57;30.60;88.00
1538;DHT22;12022;52.266;10.522;2022-08-25T14:28:27;30.60;87.40
1538;DHT22;12022;52.266;10.522;2022-08-25T14:33:58;30.90;87.20
1538;DHT22;12022;52.266;10.522;2022-08-25T14:36:38;31.00;86.20
1538;DHT22;12022;52.266;10.522;2022-08-25T14:39:18;31.10;85.40
1538;DHT22;12022;52.266;10.522;2022-08-25T14:44:55;30.90;85.20
1538;DHT22;12022;52.266;10.522;2022-08-25T14:47:22;31.10;84.80
1538;DHT22;12022;52.266;10.522;2022-08-25T14:49:49;31.20;85.20
1538;DHT22;12022;52.266;10.522;2022-08-25T14:52:27;31.30;85.30
1538;DHT22;12022;52.266;10.522;2022-08-25T14:54:55;31.50;85.00
1538;DHT22;12022;52.266;10.522;2022-08-25T14:57:23;31.70;84.30
1538;DHT22;12022;52.266;10.522;2022-08-25T14:59:52;31.80;84.30
1538;DHT22;12022;52.266;10.522;2022-08-25T15:02:22;31.50;83.80
1538;DHT22;12022;52.266;10.522;2022-08-25T15:04:58;31.90;84.00
1538;DHT22;12022;52.266;10.522;2022-08-25T15:07:28;31.80;83.40
1538;DHT22;12022;52.266;10.522;2022-08-25T15:10:14;31.70;83.30
1538;DHT22;12022;52.266;10.522;2022-08-25T15:12:47;31.50;83.50
1538;DHT22;12022;52.266;10.522;2022-08-25T15:15:20;31.40;83.80
1538;DHT22;12022;52.266;10.522;2022-08-25T15:17:48;31.30;84.20
1538;DHT22;12022;52.266;10.522;2022-08-25T15:20:16;31.20;84.20
1538;DHT22;12022;52.266;10.522;2022-08-25T15:22:58;31.10;84.40
1538;DHT22;12022;52.266;10.522;2022-08-25T15:25:25;31.00;84.40
1538;DHT22;12022;52.266;10.522;2022-08-25T15:27:53;31.00;84.40
1538;DHT22;12022;52.266;10.522;2022-08-25T15:30:54;31.00;84.80
1538;DHT22;12022;52.266;10.522;2022-08-25T15:33:21;30.60;84.80
1538;DHT22;12022;52.266;10.522;2022-08-25T15:35:48;30.90;85.00
1538;DHT22;12022;52.266;10.522;2022-08-25T15:38:15;31.00;84.80
1538;DHT22;12022;52.266;10.522;2022-08-25T15:40:42;30.90;84.70
1538;DHT22;12022;52.266;10.522;2022-08-25T15:43:09;31.00;84.70
1538;DHT22;12022;52.266;10.522;2022-08-25T15:45:39;31.00;84.60
1538;DHT22;12022;52.266;10.522;2022-08-25T15:48:07;31.00;84.80
1538;DHT22;12022;52.266;10.522;2022-08-25T15:50:52;31.10;84.50
1538;DHT22;12022;52.266;10.522;2022-08-25T15:56:57;31.20;84.10
1538;DHT22;12022;52.266;10.522;2022-08-25T15:59:26;31.10;83.80
1538;DHT22;12022;52.266;10.522;2022-08-25T16:01:54;31.10;84.20
1538;DHT22;12022;52.266;10.522;2022-08-25T16:04:26;31.00;84.20
1538;DHT22;12022;52.266;10.522;2022-08-25T16:06:54;31.00;85.30
1538;DHT22;12022;52.266;10.522;2022-08-25T16:09:22;31.00;84.70
1538;DHT22;12022;52.266;10.522;2022-08-25T16:11:59;30.60;83.90
1538;DHT22;12022;52.266;10.522;2022-08-25T16:14:34;30.80;84.50
1538;DHT22;12022;52.266;10.522;2022-08-25T16:17:03;30.70;84.80
1538;DHT22;12022;52.266;10.522;2022-08-25T16:19:31;30.60;85.00
1538;DHT22;12022;52.266;10.522;2022-08-25T16:22:01;30.60;85.30
1538;DHT22;12022;52.266;10.522;2022-08-25T16:24:32;30.50;85.60
1538;DHT22;12022;52.266;10.522;2022-08-25T16:27:04;30.50;85.60
1538;DHT22;12022;52.266;10.522;2022-08-25T16:29:39;30.50;85.80
1538;DHT22;12022;52.266;10.522;2022-08-25T16:32:08;30.40;85.70
1538;DHT22;12022;52.266;10.522;2022-08-25T16:34:35;30.40;85.80
1538;DHT22;12022;52.266;10.522;2022-08-25T16:37:03;30.40;85.90
1538;DHT22;12022;52.266;10.522;2022-08-25T16:39:32;30.40;85.80
1538;DHT22;12022;52.266;10.522;2022-08-25T16:41:59;30.30;86.00
1538;DHT22;12022;52.266;10.522;2022-08-25T16:44:26;30.20;86.10
1538;DHT22;12022;52.266;10.522;2022-08-25T16:46:54;30.20;86.50
1538;DHT22;12022;52.266;10.522;2022-08-25T16:49:23;30.10;86.90
1538;DHT22;12022;52.266;10.522;2022-08-25T16:51:51;30.00;87.00
1538;DHT22;12022;52.266;10.522;2022-08-25T16:54:24;30.00;86.90
1538;DHT22;12022;52.266;10.522;2022-08-25T16:57:21;29.90;87.00
1538;DHT22;12022;52.266;10.522;2022-08-25T16:59:47;29.80;87.30
1538;DHT22;12022;52.266;10.522;2022-08-25T17:02:14;29.70;87.70
1538;DHT22;12022;52.266;10.522;2022-08-25T17:04:44;29.70;88.00
1538;DHT22;12022;52.266;10.522;2022-08-25T17:07:11;29.60;88.40
1538;DHT22;12022;52.266;10.522;2022-08-25T17:09:38;29.20;88.60
1538;DHT22;12022;52.266;10.522;2022-08-25T17:12:06;29.40;89.40
1538;DHT22;12022;52.266;10.522;2022-08-25T17:14:35;29.40;89.60
1538;DHT22;12022;52.266;10.522;2022-08-25T17:17:02;29.40;90.00
1538;DHT22;12022;52.266;10.522;2022-08-25T17:19:32;29.30;90.20
1538;DHT22;12022;52.266;10.522;2022-08-25T17:22:00;29.20;90.30
1538;DHT22;12022;52.266;10.522;2022-08-25T17:24:28;29.10;90.40
1538;DHT22;12022;52.266;10.522;2022-08-25T17:26:59;29.10;90.80
1538;DHT22;12022;52.266;10.522;2022-08-25T17:29:27;29.00;90.80
1538;DHT22;12022;52.266;10.522;2022-08-25T17:31:54;28.90;91.10
1538;DHT22;12022;52.266;10.522;2022-08-25T17:34:22;28.90;91.30
1538;DHT22;12022;52.266;10.522;2022-08-25T17:36:54;28.80;91.40
1538;DHT22;12022;52.266;10.522;2022-08-25T17:39:23;28.70;91.50
1538;DHT22;12022;52.266;10.522;2022-08-25T17:41:51;28.70;91.70
1538;DHT22;12022;52.266;10.522;2022-08-25T17:44:18;28.60;92.20
1538;DHT22;12022;52.266;10.522;2022-08-25T17:46:47;28.60;92.00
1538;DHT22;12022;52.266;10.522;2022-08-25T17:49:15;28.50;92.10
1538;DHT22;12022;52.266;10.522;2022-08-25T17:51:43;28.40;92.30
1538;DHT22;12022;52.266;10.522;2022-08-25T17:54:11;28.40;92.40